createdAt,value
2023-04-15T00:01:57.455Z,23.38
2023-04-15T00:04:27.327Z,23.13
2023-04-15T00:06:57.473Z,22.91
2023-04-15T00:09:28.058Z,22.89
2023-04-15T00:11:57.747Z,22.93
2023-04-15T00:14:27.726Z,22.90
2023-04-15T00:17:00.326Z,22.98
2023-04-15T00:19:30.945Z,22.91
2023-04-15T00:22:02.235Z,22.85
2023-04-15T00:24:32.948Z,22.87
2023-04-15T00:27:03.309Z,22.88
2023-04-15T00:29:33.648Z,22.88
2023-04-15T00:32:04.674Z,22.90
2023-04-15T00:34:35.313Z,22.94
2023-04-15T00:37:06.247Z,22.93
2023-04-15T00:39:36.281Z,22.94
2023-04-15T00:42:10.280Z,22.89
2023-04-15T00:44:39.974Z,22.93
2023-04-15T00:47:09.991Z,22.97
2023-04-15T00:49:39.744Z,22.93
2023-04-15T00:52:11.264Z,22.90
2023-04-15T00:54:40.911Z,22.90
2023-04-15T00:57:11.508Z,22.93
2023-04-15T00:59:42.225Z,22.90
2023-04-15T01:02:11.964Z,22.89
2023-04-15T01:04:41.761Z,22.92
2023-04-15T01:07:11.445Z,22.93
2023-04-15T01:09:41.778Z,22.93
2023-04-15T01:12:13.607Z,22.91
2023-04-15T01:14:43.253Z,22.84
2023-04-15T01:17:13.082Z,22.90
2023-04-15T01:19:43.003Z,22.86
2023-04-15T01:22:12.949Z,22.90
2023-04-15T01:24:42.636Z,22.98
2023-04-15T01:27:13.234Z,22.92
2023-04-15T01:29:43.178Z,22.91
2023-04-15T01:32:14.313Z,22.91
2023-04-15T01:34:46.494Z,22.85
2023-04-15T01:37:17.310Z,22.86
2023-04-15T01:39:48.643Z,22.90
2023-04-15T01:42:19.291Z,22.87
2023-04-15T01:44:49.417Z,22.80
2023-04-15T01:47:19.302Z,22.82
2023-04-15T01:49:49.070Z,22.84
2023-04-15T01:52:21.415Z,22.82
2023-04-15T01:54:51.218Z,22.83
2023-04-15T01:57:20.951Z,22.80
2023-04-15T01:59:52.671Z,22.86
2023-04-15T02:02:22.720Z,22.91
2023-04-15T02:04:53.129Z,22.86
2023-04-15T02:07:23.437Z,22.83
2023-04-15T02:09:53.719Z,22.82
2023-04-15T02:12:24.111Z,22.76
2023-04-15T02:14:54.115Z,22.77
2023-04-15T02:17:23.840Z,22.77
2023-04-15T02:19:58.371Z,22.74
2023-04-15T02:22:29.174Z,22.74
2023-04-15T02:24:58.780Z,22.74
2023-04-15T02:27:29.776Z,22.75
2023-04-15T02:30:00.227Z,22.72
2023-04-15T02:32:30.688Z,22.76
2023-04-15T02:35:07.081Z,22.75
2023-04-15T02:37:45.639Z,22.69
2023-04-15T02:40:18.271Z,22.74
2023-04-15T02:42:48.121Z,22.79
2023-04-15T02:45:18.281Z,22.69
2023-04-15T02:47:49.336Z,22.68
2023-04-15T02:50:22.458Z,22.71
2023-04-15T02:52:52.164Z,22.70
2023-04-15T02:55:25.314Z,22.72
2023-04-15T02:57:55.021Z,22.65
2023-04-15T03:00:27.252Z,22.69
2023-04-15T03:03:06.170Z,22.68
2023-04-15T03:05:36.028Z,22.63
2023-04-15T03:08:06.795Z,22.64
2023-04-15T03:10:36.485Z,22.68
2023-04-15T03:13:06.141Z,22.65
2023-04-15T03:15:39.625Z,22.68
2023-04-15T03:18:10.105Z,22.67
2023-04-15T03:20:43.609Z,22.66
2023-04-15T03:23:14.328Z,22.71
2023-04-15T03:25:44.009Z,22.63
2023-04-15T03:28:14.725Z,22.61
2023-04-15T03:30:45.241Z,22.73
2023-04-15T03:33:15.244Z,22.65
2023-04-15T03:35:45.292Z,22.65
2023-04-15T03:38:15.306Z,22.65
2023-04-15T03:40:48.794Z,22.69
2023-04-15T03:43:19.545Z,22.68
2023-04-15T03:45:49.859Z,22.66
2023-04-15T03:48:20.323Z,22.67
2023-04-15T03:50:50.109Z,22.67
2023-04-15T03:53:20.043Z,22.64
2023-04-15T03:55:50.468Z,22.80
2023-04-15T03:58:21.251Z,22.76
2023-04-15T04:00:51.687Z,22.73
2023-04-15T04:03:21.757Z,22.68
2023-04-15T04:05:52.841Z,22.82
2023-04-15T04:08:25.228Z,22.73
2023-04-15T04:10:54.956Z,22.68
2023-04-15T04:13:25.068Z,22.75
2023-04-15T04:15:57.461Z,22.81
2023-04-15T04:18:27.329Z,22.70
2023-04-15T04:20:57.084Z,22.75
2023-04-15T04:23:26.998Z,22.70
2023-04-15T04:25:57.401Z,22.82
2023-04-15T04:28:28.019Z,22.80
2023-04-15T04:30:59.100Z,22.76
2023-04-15T04:33:28.754Z,22.70
2023-04-15T04:35:58.460Z,22.82
2023-04-15T04:38:28.899Z,22.77
2023-04-15T04:40:58.571Z,22.88
2023-04-15T04:43:29.134Z,22.92
2023-04-15T04:45:58.916Z,22.91
2023-04-15T04:48:29.294Z,22.90
2023-04-15T04:50:58.980Z,22.94
2023-04-15T04:53:32.291Z,22.86
2023-04-15T04:56:03.100Z,22.84
2023-04-15T04:58:33.068Z,22.78
2023-04-15T05:01:03.118Z,22.87
2023-04-15T05:03:33.050Z,22.89
2023-04-15T05:06:07.364Z,22.82
2023-04-15T05:08:39.928Z,22.84
2023-04-15T05:11:11.306Z,22.78
2023-04-15T05:13:41.471Z,22.89
2023-04-15T05:16:11.196Z,22.87
2023-04-15T05:18:40.951Z,22.89
2023-04-15T05:21:10.996Z,22.92
2023-04-15T05:23:40.694Z,22.87
2023-04-15T05:26:10.592Z,22.84
2023-04-15T05:28:40.326Z,22.77
2023-04-15T05:31:10.782Z,22.90
2023-04-15T05:33:40.490Z,22.90
2023-04-15T05:36:12.914Z,22.89
2023-04-15T05:38:45.555Z,22.92
2023-04-15T05:41:19.584Z,22.89
2023-04-15T05:43:50.067Z,22.87
2023-04-15T05:46:20.524Z,22.87
2023-04-15T05:48:51.731Z,22.85
2023-04-15T05:51:22.876Z,22.75
2023-04-15T05:53:53.940Z,22.89
2023-04-15T05:56:23.741Z,22.91
2023-04-15T05:58:54.288Z,22.90
2023-04-15T06:01:23.984Z,23.11
2023-04-15T06:03:54.638Z,22.98
2023-04-15T06:06:24.918Z,22.93
2023-04-15T06:08:54.847Z,22.97
2023-04-15T06:11:24.602Z,22.94
2023-04-15T06:13:54.366Z,22.87
2023-04-15T06:16:25.632Z,22.85
2023-04-15T06:19:14.019Z,22.86
2023-04-15T06:21:43.690Z,22.71
2023-04-15T06:24:14.491Z,22.84
2023-04-15T06:26:44.178Z,22.80
2023-04-15T06:29:16.556Z,22.78
2023-04-15T06:31:46.229Z,22.77
2023-04-15T06:34:19.345Z,22.73
2023-04-15T06:36:49.023Z,22.80
2023-04-15T06:39:19.117Z,22.77
2023-04-15T06:41:50.048Z,22.75
2023-04-15T06:44:21.185Z,22.77
2023-04-15T06:46:51.475Z,22.77
2023-04-15T06:49:21.106Z,22.69
2023-04-15T06:51:50.812Z,22.71
2023-04-15T06:54:21.219Z,22.72
2023-04-15T06:56:50.967Z,22.69
2023-04-15T06:59:21.751Z,22.65
2023-04-15T07:01:52.470Z,22.67
2023-04-15T07:04:22.506Z,22.70
2023-04-15T07:06:52.978Z,22.64
2023-04-15T07:09:22.661Z,22.65
2023-04-15T07:11:55.029Z,22.66
2023-04-15T07:14:26.659Z,22.66
2023-04-15T07:16:56.375Z,22.68
2023-04-15T07:19:26.622Z,22.66
2023-04-15T07:21:56.258Z,22.67
2023-04-15T07:24:29.029Z,22.64
2023-04-15T07:27:01.215Z,22.61
2023-04-15T07:29:35.702Z,22.62
2023-04-15T07:32:08.579Z,22.59
2023-04-15T07:34:39.153Z,22.59
2023-04-15T07:37:09.569Z,22.60
2023-04-15T07:39:39.658Z,22.65
2023-04-15T07:42:10.304Z,22.66
2023-04-15T07:44:40.726Z,22.57
2023-04-15T07:47:10.335Z,22.62
2023-04-15T07:49:40.487Z,22.61
2023-04-15T07:52:10.189Z,22.58
2023-04-15T07:54:39.991Z,22.57
2023-04-15T07:57:09.610Z,22.58
2023-04-15T07:59:40.450Z,22.58
2023-04-15T08:02:10.955Z,22.66
2023-04-15T08:04:42.158Z,22.59
2023-04-15T08:07:12.499Z,22.61
2023-04-15T08:09:42.118Z,22.55
2023-04-15T08:12:15.860Z,22.55
2023-04-15T08:14:45.528Z,22.61
2023-04-15T08:17:15.240Z,22.55
2023-04-15T08:19:44.916Z,22.56
2023-04-15T08:22:18.076Z,22.54
2023-04-15T08:24:50.872Z,22.61
2023-04-15T08:27:20.641Z,22.57
2023-04-15T08:29:50.276Z,22.55
2023-04-15T08:32:20.695Z,22.57
2023-04-15T08:34:50.564Z,22.53
2023-04-15T08:37:20.211Z,22.55
2023-04-15T08:39:50.568Z,22.49
2023-04-15T08:42:21.512Z,22.53
2023-04-15T08:44:51.173Z,22.54
2023-04-15T08:47:22.029Z,22.48
2023-04-15T08:49:55.476Z,22.45
2023-04-15T08:52:25.465Z,22.46
2023-04-15T08:54:59.649Z,22.56
2023-04-15T08:57:32.340Z,22.53
2023-04-15T09:00:03.093Z,22.51
2023-04-15T09:02:34.749Z,22.47
2023-04-15T09:05:07.833Z,22.42
2023-04-15T09:07:38.198Z,22.45
2023-04-15T09:10:08.308Z,22.46
2023-04-15T09:12:38.530Z,22.42
2023-04-15T09:15:09.305Z,22.46
2023-04-15T09:17:44.085Z,22.46
2023-04-15T09:20:15.085Z,22.45
2023-04-15T09:22:45.547Z,22.42
2023-04-15T09:25:17.969Z,22.43
2023-04-15T09:27:54.677Z,22.42
2023-04-15T09:30:24.345Z,22.43
2023-04-15T09:32:58.141Z,22.42
2023-04-15T09:35:29.241Z,22.42
2023-04-15T09:38:11.617Z,22.41
2023-04-15T09:40:43.221Z,22.36
2023-04-15T09:43:15.871Z,22.48
2023-04-15T09:45:53.038Z,22.38
2023-04-15T09:48:31.434Z,22.49
2023-04-15T09:51:02.054Z,22.39
2023-04-15T09:53:32.011Z,22.36
2023-04-15T09:56:04.827Z,22.35
2023-04-15T09:58:36.556Z,22.33
2023-04-15T10:01:07.777Z,22.34
2023-04-15T10:03:40.826Z,22.35
2023-04-15T10:06:10.627Z,22.35
2023-04-15T10:08:40.279Z,22.32
2023-04-15T10:11:10.164Z,22.33
2023-04-15T10:13:39.753Z,22.35
2023-04-15T10:16:17.756Z,22.31
2023-04-15T10:18:48.647Z,22.32
2023-04-15T10:21:20.230Z,22.34
2023-04-15T10:23:50.343Z,22.29
2023-04-15T10:26:20.105Z,22.29
2023-04-15T10:28:50.476Z,22.27
2023-04-15T10:31:21.563Z,22.23
2023-04-15T10:33:51.348Z,22.28
2023-04-15T10:36:22.073Z,22.23
2023-04-15T10:38:51.720Z,22.20
2023-04-15T10:41:24.353Z,22.21
2023-04-15T10:43:55.592Z,22.21
2023-04-15T10:46:41.543Z,22.16
2023-04-15T10:49:14.669Z,22.15
2023-04-15T10:51:45.890Z,22.16
2023-04-15T10:54:29.160Z,22.17
2023-04-15T10:57:04.584Z,22.11
2023-04-15T11:00:05.781Z,22.10
2023-04-15T11:02:44.799Z,22.04
2023-04-15T11:05:15.410Z,22.07
2023-04-15T11:07:56.048Z,22.05
2023-04-15T11:10:28.845Z,21.96
2023-04-15T11:13:18.069Z,21.98
2023-04-15T11:15:48.045Z,21.96
2023-04-15T11:18:27.950Z,21.99
2023-04-15T11:21:01.184Z,21.94
2023-04-15T11:23:32.100Z,21.94
2023-04-15T11:26:02.529Z,21.92
2023-04-15T11:28:33.415Z,21.94
2023-04-15T11:31:10.044Z,21.86
2023-04-15T11:33:39.985Z,21.88
2023-04-15T11:36:09.651Z,21.91
2023-04-15T11:38:39.524Z,21.91
2023-04-15T11:41:09.170Z,21.86
2023-04-15T11:43:38.795Z,21.85
2023-04-15T11:46:09.590Z,21.82
2023-04-15T11:48:39.334Z,21.83
2023-04-15T11:51:09.591Z,21.83
2023-04-15T11:53:47.489Z,21.81
2023-04-15T11:56:27.653Z,21.82
2023-04-15T11:59:00.158Z,21.82
2023-04-15T12:01:44.570Z,21.82
2023-04-15T12:04:20.774Z,21.85
2023-04-15T12:06:53.001Z,21.76
2023-04-15T12:09:23.505Z,21.79
2023-04-15T12:12:00.006Z,21.90
2023-04-15T12:14:30.771Z,21.81
2023-04-15T12:17:07.458Z,21.79
2023-04-15T12:19:44.592Z,21.82
2023-04-15T12:22:16.776Z,21.83
2023-04-15T12:24:49.482Z,21.78
2023-04-15T12:27:19.462Z,21.84
2023-04-15T12:29:49.278Z,21.78
2023-04-15T12:32:22.322Z,21.71
2023-04-15T12:34:58.352Z,21.76
2023-04-15T12:37:28.786Z,21.72
2023-04-15T12:39:58.488Z,21.80
2023-04-15T12:42:28.185Z,21.81
2023-04-15T12:44:58.456Z,21.76
2023-04-15T12:47:28.194Z,21.71
2023-04-15T12:49:57.918Z,21.72
2023-04-15T12:52:27.817Z,21.74
2023-04-15T12:54:57.634Z,21.74
2023-04-15T12:57:27.321Z,21.70
2023-04-15T12:59:57.054Z,21.67
2023-04-15T13:02:28.772Z,21.70
2023-04-15T13:04:58.548Z,21.80
2023-04-15T13:07:28.247Z,21.68
2023-04-15T13:09:58.508Z,21.68
2023-04-15T13:12:28.821Z,21.67
2023-04-15T13:14:58.793Z,21.66
2023-04-15T13:17:28.468Z,21.67
2023-04-15T13:19:58.624Z,21.60
2023-04-15T13:22:28.696Z,21.66
2023-04-15T13:24:58.352Z,21.68
2023-04-15T13:27:27.995Z,21.67
2023-04-15T13:29:57.830Z,21.65
2023-04-15T13:32:27.793Z,21.61
2023-04-15T13:34:57.862Z,21.60
2023-04-15T13:37:30.674Z,21.61
2023-04-15T13:40:00.364Z,21.58
2023-04-15T13:42:30.056Z,21.63
2023-04-15T13:44:59.688Z,21.54
2023-04-15T13:47:29.348Z,21.58
2023-04-15T13:49:59.239Z,21.65
2023-04-15T13:52:29.906Z,21.60
2023-04-15T13:55:07.895Z,21.58
2023-04-15T13:57:49.222Z,21.66
2023-04-15T14:00:19.306Z,21.55
2023-04-15T14:02:49.067Z,21.62
2023-04-15T14:05:18.860Z,21.61
2023-04-15T14:07:48.514Z,21.61
2023-04-15T14:10:18.152Z,21.56
2023-04-15T14:12:47.806Z,21.57
2023-04-15T14:15:17.509Z,21.59
2023-04-15T14:17:47.399Z,21.55
2023-04-15T14:20:17.303Z,21.54
2023-04-15T14:22:47.161Z,21.54
2023-04-15T14:25:30.518Z,21.57
2023-04-15T14:28:03.812Z,21.57
2023-04-15T14:30:33.528Z,21.59
2023-04-15T14:33:06.068Z,21.56
2023-04-15T14:35:35.843Z,21.55
2023-04-15T14:38:05.687Z,21.56
2023-04-15T14:40:36.095Z,21.53
2023-04-15T14:43:06.024Z,21.55
2023-04-15T14:45:35.762Z,21.62
2023-04-15T14:48:05.745Z,21.50
2023-04-15T14:50:35.372Z,21.52
2023-04-15T14:53:07.787Z,21.51
2023-04-15T14:55:37.576Z,21.48
2023-04-15T14:58:08.055Z,21.51
2023-04-15T15:00:40.826Z,21.44
2023-04-15T15:03:16.710Z,21.53
2023-04-15T15:05:48.298Z,21.48
2023-04-15T15:08:17.988Z,21.48
2023-04-15T15:10:50.361Z,21.53
2023-04-15T15:13:20.819Z,21.46
2023-04-15T15:15:53.480Z,21.43
2023-04-15T15:18:23.270Z,21.39
2023-04-15T15:20:52.957Z,21.47
2023-04-15T15:23:22.619Z,21.44
2023-04-15T15:25:52.272Z,21.50
2023-04-15T15:28:23.322Z,21.40
2023-04-15T15:30:53.031Z,21.50
2023-04-15T15:33:22.737Z,21.45
2023-04-15T15:35:52.705Z,21.39
2023-04-15T15:38:22.336Z,21.44
2023-04-15T15:40:57.063Z,21.41
2023-04-15T15:43:26.673Z,21.45
2023-04-15T15:45:57.078Z,21.41
2023-04-15T15:48:26.920Z,21.46
2023-04-15T15:50:56.864Z,21.40
2023-04-15T15:53:27.424Z,21.36
2023-04-15T15:55:57.681Z,21.41
2023-04-15T15:58:27.466Z,21.41
2023-04-15T16:00:57.945Z,21.38
2023-04-15T16:03:28.916Z,21.48
2023-04-15T16:05:58.628Z,21.45
2023-04-15T16:08:28.690Z,21.40
2023-04-15T16:10:58.413Z,21.35
2023-04-15T16:13:28.917Z,21.35
2023-04-15T16:15:58.619Z,21.34
2023-04-15T16:18:28.302Z,21.38
2023-04-15T16:20:57.929Z,21.32
2023-04-15T16:23:27.967Z,21.36
2023-04-15T16:25:57.690Z,21.41
2023-04-15T16:28:27.545Z,21.39
2023-04-15T16:30:58.605Z,21.30
2023-04-15T16:33:28.568Z,21.32
2023-04-15T16:35:58.202Z,21.29
2023-04-15T16:38:27.927Z,21.27
2023-04-15T16:40:57.847Z,21.37
2023-04-15T16:43:27.920Z,21.28
2023-04-15T16:45:57.989Z,21.26
2023-04-15T16:48:27.815Z,21.31
2023-04-15T16:50:57.437Z,21.32
2023-04-15T16:53:27.170Z,21.28
2023-04-15T16:55:57.031Z,21.28
2023-04-15T16:58:26.708Z,21.25
2023-04-15T17:00:56.376Z,21.29
2023-04-15T17:03:26.244Z,21.29
2023-04-15T17:05:56.082Z,21.30
2023-04-15T17:08:25.726Z,21.30
2023-04-15T17:10:56.719Z,21.27
2023-04-15T17:13:27.543Z,21.28
2023-04-15T17:15:57.226Z,21.31
2023-04-15T17:18:27.112Z,21.32
2023-04-15T17:20:58.264Z,21.29
2023-04-15T17:23:28.816Z,21.27
2023-04-15T17:25:58.465Z,21.24
2023-04-15T17:28:28.165Z,21.23
2023-04-15T17:30:57.843Z,21.28
2023-04-15T17:33:59.903Z,21.22
2023-04-15T17:36:17.926Z,21.27
2023-04-15T17:38:47.617Z,21.29
2023-04-15T17:41:17.347Z,21.25
2023-04-15T17:43:47.050Z,21.29
2023-04-15T17:46:16.773Z,21.31
2023-04-15T17:48:46.812Z,21.29
2023-04-15T17:51:16.759Z,21.22
2023-04-15T17:53:46.374Z,21.29
2023-04-15T17:56:16.056Z,21.21
2023-04-15T17:58:46.534Z,21.29
2023-04-15T18:01:16.211Z,21.22
2023-04-15T18:03:46.725Z,21.23
2023-04-15T18:06:18.054Z,21.20
2023-04-15T18:08:47.801Z,21.19
2023-04-15T18:11:17.624Z,21.21
2023-04-15T18:13:47.429Z,21.24
2023-04-15T18:16:17.253Z,21.21
2023-04-15T18:18:46.979Z,21.21
2023-04-15T18:21:16.587Z,21.20
2023-04-15T18:23:47.211Z,21.22
2023-04-15T18:26:17.196Z,21.19
2023-04-15T18:28:46.870Z,21.24
2023-04-15T18:31:16.495Z,21.19
2023-04-15T18:33:46.148Z,21.20
2023-04-15T18:36:15.772Z,21.21
2023-04-15T18:38:47.173Z,21.19
2023-04-15T18:41:16.784Z,21.18
2023-04-15T18:43:46.408Z,21.17
2023-04-15T18:46:16.326Z,21.15
2023-04-15T18:48:45.996Z,21.16
2023-04-15T18:51:15.621Z,21.19
2023-04-15T18:53:45.262Z,21.21
2023-04-15T18:56:14.896Z,21.24
2023-04-15T18:59:18.113Z,21.19
2023-04-15T19:01:34.786Z,21.18
2023-04-15T19:04:04.801Z,21.20
2023-04-15T19:06:35.306Z,21.19
2023-04-15T19:09:05.157Z,21.14
2023-04-15T19:11:34.896Z,21.19
2023-04-15T19:14:04.628Z,21.18
2023-04-15T19:16:34.353Z,21.22
2023-04-15T19:19:04.303Z,21.20
2023-04-15T19:21:34.095Z,21.18
2023-04-15T19:24:03.717Z,21.19
2023-04-15T19:26:33.337Z,21.15
2023-04-15T19:29:03.236Z,21.15
2023-04-15T19:31:33.129Z,21.08
2023-04-15T19:34:03.373Z,21.14
2023-04-15T19:36:33.756Z,21.11
2023-04-15T19:39:03.788Z,21.15
2023-04-15T19:41:33.625Z,21.13
2023-04-15T19:44:04.601Z,21.14
2023-04-15T19:46:34.437Z,21.09
2023-04-15T19:49:04.534Z,21.08
2023-04-15T19:51:34.445Z,21.16
2023-04-15T19:54:05.139Z,21.07
2023-04-15T19:56:34.858Z,21.07
2023-04-15T19:59:04.797Z,21.08
2023-04-15T20:01:34.648Z,21.09
2023-04-15T20:04:05.484Z,21.11
2023-04-15T20:06:35.323Z,21.08
2023-04-15T20:09:05.398Z,21.11
2023-04-15T20:12:06.100Z,21.11
2023-04-15T20:14:26.534Z,21.11
2023-04-15T20:16:56.238Z,21.11
2023-04-15T20:19:26.652Z,21.13
2023-04-15T20:21:56.280Z,21.11
2023-04-15T20:24:25.961Z,21.15
2023-04-15T20:26:55.614Z,21.09
2023-04-15T20:29:25.705Z,21.10
2023-04-15T20:31:55.307Z,21.08
2023-04-15T20:34:24.976Z,21.04
2023-04-15T20:36:54.613Z,21.02
2023-04-15T20:39:24.434Z,21.04
2023-04-15T20:41:56.911Z,21.04
2023-04-15T20:44:26.683Z,21.07
2023-04-15T20:46:56.334Z,21.04
2023-04-15T20:49:26.399Z,21.05
2023-04-15T20:51:56.113Z,21.07
2023-04-15T20:54:25.769Z,21.06
2023-04-15T20:56:59.622Z,21.04
2023-04-15T20:59:29.441Z,21.10
2023-04-15T21:01:59.687Z,21.02
2023-04-15T21:04:29.362Z,21.08
2023-04-15T21:06:58.990Z,21.05
2023-04-15T21:09:28.640Z,21.08
2023-04-15T21:12:01.666Z,21.07
2023-04-15T21:14:32.558Z,21.00
2023-04-15T21:17:10.598Z,21.04
2023-04-15T21:19:41.861Z,21.02
2023-04-15T21:22:11.521Z,21.01
2023-04-15T21:24:41.157Z,21.04
2023-04-15T21:27:11.723Z,21.05
2023-04-15T21:29:41.919Z,21.03
2023-04-15T21:32:11.687Z,21.01
2023-04-15T21:34:41.382Z,20.99
2023-04-15T21:37:11.062Z,20.98
2023-04-15T21:39:40.729Z,21.01
2023-04-15T21:42:10.471Z,21.02
2023-04-15T21:44:40.156Z,20.96
2023-04-15T21:47:09.833Z,21.01
2023-04-15T21:49:39.852Z,21.02
2023-04-15T21:52:09.554Z,21.01
2023-04-15T21:54:39.587Z,21.00
2023-04-15T21:57:09.285Z,20.97
2023-04-15T21:59:38.884Z,20.95
2023-04-15T22:02:08.611Z,20.95
2023-04-15T22:04:38.348Z,20.94
2023-04-15T22:07:08.007Z,20.96
2023-04-15T22:09:37.827Z,20.97
2023-04-15T22:12:08.114Z,21.01
2023-04-15T22:14:37.790Z,20.99
2023-04-15T22:17:07.491Z,20.98
2023-04-15T22:19:37.198Z,20.95
2023-04-15T22:22:06.898Z,20.92
2023-04-15T22:24:39.957Z,20.92
2023-04-15T22:27:10.464Z,21.00
2023-04-15T22:29:40.137Z,20.91
2023-04-15T22:32:10.025Z,20.90
2023-04-15T22:34:39.644Z,20.90
2023-04-15T22:37:09.287Z,20.92
2023-04-15T22:39:38.958Z,20.90
2023-04-15T22:42:08.566Z,20.96
2023-04-15T22:44:38.218Z,20.92
2023-04-15T22:47:07.952Z,20.95
2023-04-15T22:49:38.084Z,20.90
2023-04-15T22:52:12.135Z,20.91
2023-04-15T22:54:42.236Z,20.90
2023-04-15T22:57:11.824Z,20.90
2023-04-15T22:59:41.500Z,20.91
2023-04-15T23:02:11.336Z,20.92
2023-04-15T23:04:41.185Z,20.97
2023-04-15T23:07:11.039Z,20.89
2023-04-15T23:09:41.311Z,20.90
2023-04-15T23:12:10.926Z,20.89
2023-04-15T23:14:40.541Z,20.93
2023-04-15T23:17:10.314Z,20.91
2023-04-15T23:19:40.546Z,20.92
2023-04-15T23:22:12.120Z,20.93
2023-04-15T23:24:41.744Z,20.87
2023-04-15T23:27:11.400Z,20.94
2023-04-15T23:29:41.075Z,20.92
2023-04-15T23:32:10.695Z,20.86
2023-04-15T23:34:40.366Z,20.92
2023-04-15T23:37:10.070Z,20.92
2023-04-15T23:39:39.743Z,20.90
2023-04-15T23:42:09.426Z,20.91
2023-04-15T23:44:41.839Z,20.85
2023-04-15T23:47:12.185Z,20.87
2023-04-15T23:49:42.504Z,20.89
2023-04-15T23:52:12.398Z,20.86
2023-04-15T23:54:42.440Z,20.89
2023-04-15T23:57:12.073Z,20.88
2023-04-15T23:59:41.836Z,20.89
